createdAt,value
2023-02-21T00:00:37.840Z,4.38
2023-02-21T00:03:23.764Z,3.00
2023-02-21T00:06:09.809Z,3.88
2023-02-21T00:08:56.218Z,4.00
2023-02-21T00:11:41.993Z,4.25
2023-02-21T00:14:27.941Z,5.47
2023-02-21T00:17:15.417Z,5.65
2023-02-21T00:20:01.528Z,5.93
2023-02-21T00:22:48.076Z,5.57
2023-02-21T00:25:34.364Z,4.13
2023-02-21T00:28:20.609Z,3.53
2023-02-21T00:31:06.581Z,4.93
2023-02-21T00:33:56.079Z,4.53
2023-02-21T00:36:42.052Z,4.20
2023-02-21T00:39:28.154Z,5.18
2023-02-21T00:42:14.346Z,4.28
2023-02-21T00:45:00.471Z,5.80
2023-02-21T00:47:46.632Z,4.28
2023-02-21T00:50:34.729Z,5.17
2023-02-21T00:53:20.935Z,4.78
2023-02-21T00:56:06.973Z,4.30
2023-02-21T00:58:52.851Z,6.35
2023-02-21T01:01:38.977Z,5.15
2023-02-21T01:04:25.246Z,4.47
2023-02-21T01:07:12.623Z,4.18
2023-02-21T01:09:58.627Z,8.35
2023-02-21T01:12:44.567Z,5.50
2023-02-21T01:15:30.429Z,4.88
2023-02-21T01:18:16.906Z,7.90
2023-02-21T01:21:02.966Z,4.28
2023-02-21T01:23:50.998Z,8.25
2023-02-21T01:26:37.024Z,5.97
2023-02-21T01:29:23.146Z,5.00
2023-02-21T01:32:09.518Z,9.63
2023-02-21T01:34:58.267Z,6.60
2023-02-21T01:37:44.166Z,4.93
2023-02-21T01:40:35.112Z,4.38
2023-02-21T01:43:21.855Z,5.15
2023-02-21T01:46:12.458Z,4.20
2023-02-21T01:48:58.949Z,7.00
2023-02-21T01:51:54.270Z,4.53
2023-02-21T01:54:42.579Z,4.35
2023-02-21T01:57:31.532Z,5.20
2023-02-21T02:00:24.353Z,7.77
2023-02-21T02:03:18.204Z,6.93
2023-02-21T02:06:08.910Z,6.97
2023-02-21T02:08:56.298Z,6.60
2023-02-21T02:12:16.595Z,4.25
2023-02-21T02:15:27.660Z,6.10
2023-02-21T02:18:36.606Z,3.20
2023-02-21T02:22:09.553Z,4.55
2023-02-21T02:25:06.866Z,6.65
2023-02-21T02:28:23.691Z,6.75
2023-02-21T02:31:43.744Z,6.27
2023-02-21T02:35:00.259Z,8.93
2023-02-21T02:37:37.196Z,5.75
2023-02-21T02:40:20.225Z,8.25
2023-02-21T02:43:08.995Z,7.68
2023-02-21T02:45:46.416Z,8.90
2023-02-21T02:48:21.304Z,6.30
2023-02-21T02:50:53.705Z,3.67
2023-02-21T02:53:27.359Z,5.35
2023-02-21T02:56:00.901Z,8.32
2023-02-21T02:58:35.519Z,4.20
2023-02-21T03:01:28.588Z,5.43
2023-02-21T03:04:16.220Z,6.78
2023-02-21T03:07:02.229Z,4.00
2023-02-21T03:09:44.641Z,7.88
2023-02-21T03:12:27.052Z,3.87
2023-02-21T03:15:04.545Z,3.28
2023-02-21T03:17:41.612Z,3.90
2023-02-21T03:20:14.259Z,3.35
2023-02-21T03:22:47.808Z,4.30
2023-02-21T03:25:18.844Z,3.80
2023-02-21T03:27:50.865Z,4.72
2023-02-21T03:30:24.647Z,7.80
2023-02-21T03:32:56.404Z,4.10
2023-02-21T03:35:31.375Z,11.23
2023-02-21T03:38:02.242Z,4.87
2023-02-21T03:40:34.871Z,4.55
2023-02-21T03:43:07.999Z,4.82
2023-02-21T03:45:45.855Z,7.70
2023-02-21T03:48:31.111Z,4.78
2023-02-21T03:51:06.909Z,2.93
2023-02-21T03:53:41.883Z,5.75
2023-02-21T03:56:14.207Z,4.75
2023-02-21T03:59:03.364Z,4.35
2023-02-21T04:01:32.789Z,9.40
2023-02-21T04:04:03.358Z,2.70
2023-02-21T04:06:32.519Z,3.28
2023-02-21T04:09:03.150Z,6.32
2023-02-21T04:11:33.467Z,6.85
2023-02-21T04:14:04.524Z,7.75
2023-02-21T04:16:33.563Z,3.53
2023-02-21T04:19:03.587Z,4.22
2023-02-21T04:21:32.594Z,4.05
2023-02-21T04:24:03.839Z,5.50
2023-02-21T04:26:36.992Z,5.50
2023-02-21T04:29:11.572Z,4.77
2023-02-21T04:31:41.086Z,5.30
2023-02-21T04:34:17.092Z,5.63
2023-02-21T04:36:47.149Z,6.45
2023-02-21T04:39:17.404Z,6.68
2023-02-21T04:41:46.263Z,5.47
2023-02-21T04:44:29.884Z,5.95
2023-02-21T04:47:00.791Z,5.50
2023-02-21T04:49:29.427Z,5.10
2023-02-21T04:51:58.048Z,6.90
2023-02-21T04:54:28.165Z,7.53
2023-02-21T04:56:56.983Z,7.72
2023-02-21T04:59:25.896Z,7.38
2023-02-21T05:01:54.551Z,6.38
2023-02-21T05:04:28.618Z,6.90
2023-02-21T05:06:57.262Z,6.33
2023-02-21T05:09:27.321Z,6.10
2023-02-21T05:11:55.974Z,4.95
2023-02-21T05:14:24.863Z,5.00
2023-02-21T05:16:53.634Z,6.63
2023-02-21T05:19:28.362Z,8.00
2023-02-21T05:22:01.620Z,8.65
2023-02-21T05:24:32.621Z,8.25
2023-02-21T05:27:01.795Z,9.10
2023-02-21T05:29:32.079Z,9.88
2023-02-21T05:32:01.540Z,5.27
2023-02-21T05:34:30.863Z,6.20
2023-02-21T05:37:00.264Z,5.75
2023-02-21T05:39:31.542Z,8.20
2023-02-21T05:42:02.530Z,9.00
2023-02-21T05:44:33.301Z,4.63
2023-02-21T05:47:03.565Z,9.43
2023-02-21T05:49:32.142Z,7.28
2023-02-21T05:52:06.622Z,7.38
2023-02-21T05:54:55.929Z,9.20
2023-02-21T05:57:25.840Z,3.87
2023-02-21T05:59:54.870Z,4.10
2023-02-21T06:02:30.019Z,4.45
2023-02-21T06:05:03.352Z,6.00
2023-02-21T06:07:34.219Z,5.53
2023-02-21T06:10:04.918Z,3.97
2023-02-21T06:12:34.012Z,5.50
2023-02-21T06:15:07.370Z,10.98
2023-02-21T06:17:41.013Z,7.30
2023-02-21T06:20:14.295Z,5.22
2023-02-21T06:22:43.223Z,3.83
2023-02-21T06:25:15.519Z,2.00
2023-02-21T06:27:46.747Z,8.00
2023-02-21T06:30:17.787Z,10.18
2023-02-21T06:32:51.943Z,8.20
2023-02-21T06:35:24.265Z,12.90
2023-02-21T06:37:56.313Z,8.00
2023-02-21T06:40:26.396Z,9.13
2023-02-21T06:42:55.039Z,8.63
2023-02-21T06:45:23.660Z,6.25
2023-02-21T06:47:52.365Z,9.37
2023-02-21T06:50:21.292Z,8.95
2023-02-21T06:52:50.259Z,9.38
2023-02-21T06:55:26.002Z,8.80
2023-02-21T06:57:54.699Z,10.60
2023-02-21T07:00:23.841Z,8.37
2023-02-21T07:02:52.638Z,7.10
2023-02-21T07:05:21.660Z,10.25
2023-02-21T07:07:50.380Z,7.20
2023-02-21T07:10:19.402Z,6.25
2023-02-21T07:12:49.791Z,11.03
2023-02-21T07:15:18.496Z,5.38
2023-02-21T07:17:47.294Z,8.43
2023-02-21T07:20:16.137Z,6.47
2023-02-21T07:22:45.434Z,3.45
2023-02-21T07:25:21.317Z,5.87
2023-02-21T07:27:52.841Z,4.75
2023-02-21T07:30:21.918Z,10.02
2023-02-21T07:32:50.761Z,6.75
2023-02-21T07:35:19.813Z,8.55
2023-02-21T07:37:48.416Z,11.70
2023-02-21T07:40:17.503Z,6.65
2023-02-21T07:42:48.056Z,10.65
2023-02-21T07:45:24.803Z,8.45
2023-02-21T07:47:53.641Z,6.10
2023-02-21T07:50:31.699Z,7.90
2023-02-21T07:53:01.324Z,7.43
2023-02-21T07:55:47.870Z,10.07
2023-02-21T07:58:19.707Z,6.40
2023-02-21T08:00:53.942Z,8.38
2023-02-21T08:03:27.296Z,10.53
2023-02-21T08:05:56.029Z,7.57
2023-02-21T08:08:26.114Z,9.98
2023-02-21T08:10:54.910Z,7.60
2023-02-21T08:13:25.655Z,7.85
2023-02-21T08:15:56.310Z,4.37
2023-02-21T08:18:26.426Z,4.50
2023-02-21T08:20:58.473Z,8.07
2023-02-21T08:23:28.302Z,10.88
2023-02-21T08:26:13.207Z,10.75
2023-02-21T08:28:45.191Z,7.33
2023-02-21T08:31:16.189Z,7.95
2023-02-21T08:33:48.414Z,4.85
2023-02-21T08:36:17.120Z,5.05
2023-02-21T08:38:45.876Z,8.90
2023-02-21T08:41:16.280Z,3.87
2023-02-21T08:43:45.053Z,7.25
2023-02-21T08:46:17.137Z,8.13
2023-02-21T08:48:48.980Z,8.18
2023-02-21T08:51:18.295Z,5.22
2023-02-21T08:53:47.306Z,5.87
2023-02-21T08:56:23.805Z,8.48
2023-02-21T08:58:55.180Z,7.95
2023-02-21T09:01:36.614Z,7.45
2023-02-21T09:04:06.745Z,6.90
2023-02-21T09:06:35.641Z,7.60
2023-02-21T09:09:04.714Z,10.05
2023-02-21T09:11:33.968Z,8.75
2023-02-21T09:14:08.484Z,7.25
2023-02-21T09:16:42.052Z,8.43
2023-02-21T09:19:14.071Z,6.80
2023-02-21T09:21:48.233Z,6.80
2023-02-21T09:24:17.710Z,6.30
2023-02-21T09:26:49.689Z,8.45
2023-02-21T09:29:19.554Z,6.30
2023-02-21T09:31:55.230Z,7.40
2023-02-21T09:34:25.379Z,8.07
2023-02-21T09:36:55.090Z,4.40
2023-02-21T09:39:25.268Z,7.63
2023-02-21T09:41:57.448Z,8.98
2023-02-21T09:44:30.533Z,13.10
2023-02-21T09:47:06.524Z,7.55
2023-02-21T09:49:39.247Z,9.00
2023-02-21T09:52:23.824Z,9.25
2023-02-21T09:54:59.372Z,9.57
2023-02-21T09:57:28.304Z,9.63
2023-02-21T09:59:57.097Z,6.97
2023-02-21T10:02:46.829Z,6.47
2023-02-21T10:05:27.275Z,5.75
2023-02-21T10:08:06.272Z,6.35
2023-02-21T10:10:45.029Z,8.33
2023-02-21T10:13:32.550Z,6.75
2023-02-21T10:16:09.800Z,8.55
2023-02-21T10:18:48.499Z,6.32
2023-02-21T10:21:26.713Z,6.45
2023-02-21T10:23:59.609Z,8.87
2023-02-21T10:26:32.689Z,4.80
2023-02-21T10:29:04.390Z,5.93
2023-02-21T10:31:37.692Z,7.05
2023-02-21T10:34:24.398Z,4.53
2023-02-21T10:36:55.228Z,8.90
2023-02-21T10:39:34.178Z,9.15
2023-02-21T10:42:03.288Z,6.03
2023-02-21T10:44:37.198Z,5.55
2023-02-21T10:47:20.844Z,8.85
2023-02-21T10:50:01.878Z,5.30
2023-02-21T10:52:38.986Z,6.85
2023-02-21T10:55:32.341Z,8.30
2023-02-21T10:58:11.098Z,10.25
2023-02-21T11:00:47.977Z,9.35
2023-02-21T11:03:27.413Z,6.50
2023-02-21T11:05:59.854Z,4.60
2023-02-21T11:08:54.699Z,7.88
2023-02-21T11:11:39.693Z,7.72
2023-02-21T11:14:41.019Z,6.05
2023-02-21T11:17:20.065Z,6.37
2023-02-21T11:19:55.519Z,6.40
2023-02-21T11:22:37.126Z,3.72
2023-02-21T11:25:18.984Z,7.72
2023-02-21T11:28:05.619Z,7.10
2023-02-21T11:30:38.076Z,7.10
2023-02-21T11:33:10.184Z,4.55
2023-02-21T11:35:48.089Z,4.55
2023-02-21T11:41:24.690Z,3.80
2023-02-21T11:43:55.268Z,5.15
2023-02-21T11:46:41.483Z,4.65
2023-02-21T11:49:26.137Z,5.05
2023-02-21T11:52:01.200Z,6.57
2023-02-21T11:54:32.522Z,5.63
2023-02-21T11:57:11.646Z,6.32
2023-02-21T11:59:51.148Z,9.05
2023-02-21T12:03:04.186Z,2.80
2023-02-21T12:05:55.089Z,5.37
2023-02-21T12:08:44.203Z,6.53
2023-02-21T12:11:31.791Z,3.97
2023-02-21T12:14:24.554Z,5.15
2023-02-21T12:17:14.955Z,5.40
2023-02-21T12:20:27.325Z,5.30
2023-02-21T12:23:20.450Z,4.72
2023-02-21T12:26:28.774Z,2.92
2023-02-21T12:29:36.739Z,2.65
2023-02-21T12:32:47.175Z,1.70
2023-02-21T12:36:21.220Z,2.90
2023-02-21T12:39:12.356Z,4.03
2023-02-21T12:42:12.281Z,7.80
2023-02-21T12:45:03.785Z,4.82
2023-02-21T12:47:43.005Z,4.55
2023-02-21T12:50:22.781Z,6.40
2023-02-21T12:53:03.371Z,3.88
2023-02-21T12:55:39.882Z,4.45
2023-02-21T12:58:21.082Z,4.82
2023-02-21T13:01:26.535Z,7.15
2023-02-21T13:04:09.412Z,3.33
2023-02-21T13:06:47.338Z,4.55
2023-02-21T13:09:30.041Z,5.10
2023-02-21T13:12:07.561Z,7.40
2023-02-21T13:14:46.860Z,5.03
2023-02-21T13:17:20.897Z,3.80
2023-02-21T13:19:56.030Z,3.22
2023-02-21T13:23:38.230Z,4.40
2023-02-21T13:26:43.158Z,2.42
2023-02-21T13:29:22.005Z,4.78
2023-02-21T13:32:03.744Z,3.43
2023-02-21T13:34:45.261Z,5.68
2023-02-21T13:37:21.380Z,2.65
2023-02-21T13:39:58.873Z,4.18
2023-02-21T13:42:31.104Z,2.50
2023-02-21T13:45:22.207Z,3.20
2023-02-21T13:48:29.717Z,4.35
2023-02-21T13:51:05.154Z,3.42
2023-02-21T13:53:58.626Z,3.38
2023-02-21T13:56:45.668Z,4.18
2023-02-21T13:59:54.688Z,2.70
2023-02-21T14:02:32.987Z,8.30
2023-02-21T14:05:08.159Z,7.80
2023-02-21T14:08:03.969Z,5.00
2023-02-21T14:10:41.594Z,5.25
2023-02-21T14:13:24.730Z,7.83
2023-02-21T14:16:02.484Z,10.57
2023-02-21T14:18:43.750Z,7.45
2023-02-21T14:21:18.659Z,7.82
2023-02-21T14:23:55.024Z,10.23
2023-02-21T14:26:44.144Z,5.80
2023-02-21T14:29:33.712Z,4.57
2023-02-21T14:32:42.568Z,3.72
2023-02-21T14:35:35.096Z,6.20
2023-02-21T14:38:08.860Z,3.83
2023-02-21T14:41:03.002Z,5.87
2023-02-21T14:43:59.549Z,4.20
2023-02-21T14:46:54.748Z,3.63
2023-02-21T14:50:27.853Z,2.00
2023-02-21T14:53:49.434Z,4.22
2023-02-21T14:57:02.786Z,10.73
2023-02-21T14:59:56.341Z,1.80
2023-02-21T15:02:38.354Z,1.90
2023-02-21T15:05:19.344Z,2.85
2023-02-21T15:08:04.330Z,5.80
2023-02-21T15:10:41.363Z,3.87
2023-02-21T15:13:26.649Z,8.23
2023-02-21T15:16:14.480Z,6.93
2023-02-21T15:19:01.919Z,2.97
2023-02-21T15:21:33.572Z,6.35
2023-02-21T15:24:07.974Z,4.53
2023-02-21T15:26:44.736Z,2.28
2023-02-21T15:29:22.174Z,6.60
2023-02-21T15:31:58.399Z,5.80
2023-02-21T15:34:32.521Z,3.80
2023-02-21T15:37:33.643Z,8.93
2023-02-21T15:40:12.295Z,4.60
2023-02-21T15:42:51.135Z,15.75
2023-02-21T15:45:35.211Z,22.83
2023-02-21T15:48:06.427Z,18.45
2023-02-21T15:50:53.581Z,22.70
2023-02-21T15:53:25.452Z,22.58
2023-02-21T15:55:54.997Z,30.58
2023-02-21T15:58:44.110Z,25.88
2023-02-21T16:01:14.880Z,32.35
2023-02-21T16:03:49.667Z,24.10
2023-02-21T16:06:28.941Z,14.80
2023-02-21T16:09:09.080Z,12.98
2023-02-21T16:11:49.760Z,11.68
2023-02-21T16:14:26.550Z,6.80
2023-02-21T16:17:23.499Z,5.60
2023-02-21T16:19:56.895Z,4.90
2023-02-21T16:22:43.147Z,4.75
2023-02-21T16:25:25.267Z,5.18
2023-02-21T16:27:57.124Z,4.78
2023-02-21T16:30:28.886Z,3.03
2023-02-21T16:33:04.680Z,4.30
2023-02-21T16:35:35.159Z,5.20
2023-02-21T16:38:03.911Z,7.13
2023-02-21T16:40:35.247Z,4.50
2023-02-21T16:43:06.297Z,6.80
2023-02-21T16:45:35.311Z,2.97
2023-02-21T16:48:09.221Z,5.43
2023-02-21T16:50:40.552Z,8.25
2023-02-21T16:53:13.702Z,7.43
2023-02-21T16:55:43.831Z,9.83
2023-02-21T16:58:26.460Z,11.52
2023-02-21T17:00:59.116Z,7.95
2023-02-21T17:03:29.870Z,7.35
2023-02-21T17:06:01.983Z,3.60
2023-02-21T17:08:33.347Z,6.27
2023-02-21T17:11:02.001Z,4.30
2023-02-21T17:13:30.708Z,6.90
2023-02-21T17:15:59.615Z,5.03
2023-02-21T17:18:31.514Z,7.25
2023-02-21T17:21:00.317Z,9.53
2023-02-21T17:23:29.930Z,4.90
2023-02-21T17:26:04.328Z,7.40
2023-02-21T17:28:37.826Z,6.35
2023-02-21T17:31:06.731Z,7.30
2023-02-21T17:33:37.106Z,4.30
2023-02-21T17:36:06.446Z,9.70
2023-02-21T17:38:35.188Z,6.40
2023-02-21T17:41:05.245Z,7.03
2023-02-21T17:43:34.144Z,5.70
2023-02-21T17:46:02.924Z,10.23
2023-02-21T17:48:31.663Z,6.85
2023-02-21T17:51:01.825Z,7.03
2023-02-21T17:53:30.525Z,5.07
2023-02-21T17:56:00.146Z,7.80
2023-02-21T17:58:30.716Z,6.27
2023-02-21T18:01:02.840Z,5.28
2023-02-21T18:03:31.838Z,12.07
2023-02-21T18:06:01.986Z,16.67
2023-02-21T18:08:30.649Z,16.13
2023-02-21T18:10:59.389Z,13.60
2023-02-21T18:13:28.379Z,4.75
2023-02-21T18:15:59.671Z,5.47
2023-02-21T18:18:28.390Z,5.05
2023-02-21T18:20:59.793Z,7.45
2023-02-21T18:23:30.237Z,5.77
2023-02-21T18:25:59.937Z,6.38
2023-02-21T18:28:33.166Z,3.78
2023-02-21T18:31:04.783Z,6.43
2023-02-21T18:33:34.346Z,7.93
2023-02-21T18:36:11.638Z,3.53
2023-02-21T18:38:43.613Z,6.25
2023-02-21T18:41:14.664Z,5.05
2023-02-21T18:43:44.597Z,7.20
2023-02-21T18:46:38.559Z,8.25
2023-02-21T18:49:08.651Z,4.00
2023-02-21T18:51:38.308Z,6.57
2023-02-21T18:54:08.991Z,7.78
2023-02-21T18:56:40.705Z,3.97
2023-02-21T18:59:10.890Z,4.78
2023-02-21T19:01:39.552Z,5.63
2023-02-21T19:04:08.250Z,7.45
2023-02-21T19:06:40.925Z,3.80
2023-02-21T19:09:12.178Z,6.78
2023-02-21T19:11:41.139Z,5.15
2023-02-21T19:14:10.130Z,6.30
2023-02-21T19:16:46.773Z,7.90
2023-02-21T19:19:15.608Z,8.43
2023-02-21T19:21:45.800Z,4.43
2023-02-21T19:24:16.056Z,6.70
2023-02-21T19:26:44.807Z,6.00
2023-02-21T19:29:13.770Z,7.05
2023-02-21T19:31:42.873Z,8.18
2023-02-21T19:34:12.023Z,8.82
2023-02-21T19:36:41.096Z,3.40
2023-02-21T19:39:14.059Z,6.43
2023-02-21T19:41:44.206Z,8.05
2023-02-21T19:44:12.923Z,7.30
2023-02-21T19:46:41.595Z,5.35
2023-02-21T19:49:17.808Z,9.00
2023-02-21T19:51:49.068Z,5.20
2023-02-21T19:54:21.315Z,5.47
2023-02-21T19:56:51.914Z,5.22
2023-02-21T19:59:20.673Z,5.88
2023-02-21T20:01:51.447Z,5.85
2023-02-21T20:04:21.361Z,5.83
2023-02-21T20:06:52.909Z,4.32
2023-02-21T20:09:21.751Z,4.00
2023-02-21T20:11:51.805Z,9.52
2023-02-21T20:14:20.585Z,9.85
2023-02-21T20:16:49.394Z,13.73
2023-02-21T20:19:18.029Z,11.32
2023-02-21T20:21:46.969Z,17.25
2023-02-21T20:24:15.923Z,19.55
2023-02-21T20:26:44.594Z,23.58
2023-02-21T20:29:14.638Z,15.77
2023-02-21T20:31:43.271Z,14.15
2023-02-21T20:34:12.458Z,9.15
2023-02-21T20:36:43.328Z,17.35
2023-02-21T20:39:22.405Z,10.38
2023-02-21T20:41:51.119Z,11.83
2023-02-21T20:44:24.091Z,6.65
2023-02-21T20:46:53.983Z,10.85
2023-02-21T20:49:22.724Z,8.27
2023-02-21T20:51:51.492Z,6.45
2023-02-21T20:54:22.320Z,13.20
2023-02-21T20:56:53.849Z,10.02
2023-02-21T20:59:29.010Z,21.98
2023-02-21T21:02:00.010Z,7.30
2023-02-21T21:04:32.282Z,5.95
2023-02-21T21:07:04.303Z,17.30
2023-02-21T21:09:35.161Z,13.60
2023-02-21T21:12:07.419Z,7.18
2023-02-21T21:14:43.095Z,20.60
2023-02-21T21:17:15.173Z,6.20
2023-02-21T21:19:46.739Z,11.27
2023-02-21T21:22:18.483Z,13.80
2023-02-21T21:24:47.563Z,15.18
2023-02-21T21:27:17.633Z,12.13
2023-02-21T21:29:48.672Z,9.85
2023-02-21T21:32:21.799Z,5.70
2023-02-21T21:34:53.792Z,7.88
2023-02-21T21:37:26.623Z,13.75
2023-02-21T21:39:56.664Z,7.88
2023-02-21T21:42:29.103Z,14.68
2023-02-21T21:44:59.306Z,16.33
2023-02-21T21:47:31.998Z,19.00
2023-02-21T21:50:02.544Z,16.80
2023-02-21T21:52:33.171Z,25.05
2023-02-21T21:55:02.368Z,26.45
2023-02-21T21:57:33.087Z,27.97
2023-02-21T22:00:05.772Z,43.33
2023-02-21T22:02:38.203Z,37.35
2023-02-21T22:05:07.149Z,29.10
2023-02-21T22:07:35.750Z,34.33
2023-02-21T22:10:07.180Z,26.23
2023-02-21T22:12:35.751Z,12.80
2023-02-21T22:15:10.550Z,27.98
2023-02-21T22:17:41.209Z,16.38
2023-02-21T22:20:17.675Z,17.95
2023-02-21T22:22:50.128Z,17.43
2023-02-21T22:25:21.210Z,19.25
2023-02-21T22:27:50.360Z,15.65
2023-02-21T22:30:22.890Z,17.38
2023-02-21T22:32:51.857Z,15.30
2023-02-21T22:35:21.816Z,6.50
2023-02-21T22:37:53.875Z,7.95
2023-02-21T22:40:25.900Z,3.55
2023-02-21T22:42:55.650Z,9.18
2023-02-21T22:45:26.515Z,7.07
2023-02-21T22:47:57.738Z,5.73
2023-02-21T22:50:27.410Z,7.50
2023-02-21T22:52:58.935Z,6.22
2023-02-21T22:55:29.750Z,5.45
2023-02-21T22:58:01.280Z,5.63
2023-02-21T23:00:34.409Z,5.77
2023-02-21T23:03:12.861Z,6.65
2023-02-21T23:05:43.799Z,5.65
2023-02-21T23:08:14.687Z,7.53
2023-02-21T23:10:44.255Z,6.47
2023-02-21T23:13:16.294Z,5.00
2023-02-21T23:15:47.419Z,8.65
2023-02-21T23:18:21.372Z,5.70
2023-02-21T23:20:53.806Z,7.00
2023-02-21T23:23:25.990Z,6.55
2023-02-21T23:25:58.956Z,7.30
2023-02-21T23:28:30.585Z,7.25
2023-02-21T23:31:00.647Z,3.90
2023-02-21T23:33:34.108Z,5.65
2023-02-21T23:36:04.812Z,4.53
2023-02-21T23:38:38.443Z,3.23
2023-02-21T23:41:09.095Z,4.68
2023-02-21T23:43:40.082Z,5.28
2023-02-21T23:46:10.611Z,5.55
2023-02-21T23:48:39.321Z,7.88
2023-02-21T23:51:08.289Z,7.93
2023-02-21T23:53:36.991Z,5.85
2023-02-21T23:56:06.386Z,6.13
2023-02-21T23:58:35.066Z,7.38
